Time;durP1;ratioP1;P1;durP2;ratioP2;P2;SDS_P1;SDS_P2;PMS_P1;PMS_P2;Temp;Humidity;BMP_temperature;BMP_pressure;BME280_temperature;BME280_humidity;BME280_pressure;Samples;Min_cycle;Max_cycle;Signal;HPM_P1;HPM_P2
2022/03/03 00:01:16;;;;;;;6.55;2.42;;;;;;;21.61;29.39;101401.53;4213825;28;20032;-45
2022/03/03 00:03:17;;;;;;;7.45;2.80;;;;;;;21.61;29.38;101407.09;4213709;28;20452;-45
2022/03/03 00:05:18;;;;;;;8.85;2.58;;;;;;;21.59;29.29;101400.13;4213595;28;20036;-43
2022/03/03 00:07:20;;;;;;;11.07;3.10;;;;;;;21.61;29.75;101407.09;4213949;28;20039;-47
2022/03/03 00:09:21;;;;;;;10.82;3.17;;;;;;;21.63;29.35;101420.75;4213905;28;20101;-45
2022/03/03 00:11:23;;;;;;;8.13;2.53;;;;;;;21.63;29.82;101416.03;4213492;28;20078;-44
2022/03/03 00:13:24;;;;;;;6.85;2.70;;;;;;;21.65;29.64;101413.78;4214230;28;20044;-45
2022/03/03 00:15:26;;;;;;;14.00;3.10;;;;;;;21.66;29.56;101421.03;4213613;28;20040;-42
2022/03/03 00:17:27;;;;;;;12.90;2.50;;;;;;;21.64;29.69;101409.34;4214068;28;20062;-46
2022/03/03 00:19:28;;;;;;;12.57;2.80;;;;;;;21.66;29.63;101412.66;4214104;28;20040;-42
2022/03/03 00:21:30;;;;;;;8.98;2.72;;;;;;;21.67;29.74;101411.59;4213264;28;20032;-48
2022/03/03 00:23:32;;;;;;;8.38;2.47;;;;;;;21.67;29.59;101417.16;4213543;28;20441;-42
2022/03/03 00:25:34;;;;;;;15.52;3.00;;;;;;;21.67;30.11;101417.16;4212179;28;20086;-44
2022/03/03 00:27:38;;;;;;;10.43;2.50;;;;;;;21.67;29.56;101422.72;4213754;28;20549;-45
2022/03/03 00:29:39;;;;;;;9.77;2.43;;;;;;;21.68;29.77;101418.00;4204009;28;20036;-44
2022/03/03 00:31:41;;;;;;;10.50;2.58;;;;;;;21.67;29.78;101419.94;4202197;28;20041;-45
2022/03/03 00:33:45;;;;;;;6.38;2.28;;;;;;;21.63;29.76;101407.66;4213884;28;20479;-44
2022/03/03 00:35:47;;;;;;;10.60;2.90;;;;;;;21.71;29.77;101407.09;4208209;28;20036;-43
2022/03/03 00:37:48;;;;;;;11.65;2.70;;;;;;;21.71;29.87;101415.47;4208643;28;20097;-44
2022/03/03 00:39:50;;;;;;;8.35;2.15;;;;;;;21.72;30.00;101414.38;4212338;28;20051;-45
2022/03/03 00:41:51;;;;;;;13.45;2.78;;;;;;;21.72;29.77;101402.41;4212343;28;20037;-44
2022/03/03 00:43:53;;;;;;;10.40;2.55;;;;;;;21.72;29.94;101400.44;4207243;28;20037;-43
2022/03/03 00:45:54;;;;;;;8.10;3.00;;;;;;;21.71;29.58;101387.63;4198137;28;20037;-47
2022/03/03 00:47:56;;;;;;;9.63;2.88;;;;;;;21.73;29.69;101388.19;4199881;28;20041;-45
2022/03/03 00:49:58;;;;;;;7.35;2.47;;;;;;;21.73;29.63;101392.94;4199938;28;20036;-44
2022/03/03 00:51:59;;;;;;;9.20;2.97;;;;;;;21.74;29.52;101395.44;4199263;28;20044;-45
2022/03/03 00:54:01;;;;;;;11.30;3.40;;;;;;;21.74;29.55;101384.28;4199951;28;20098;-44
2022/03/03 00:56:03;;;;;;;13.10;2.60;;;;;;;21.75;29.38;101380.38;4199664;28;20468;-45
2022/03/03 00:58:05;;;;;;;10.13;2.88;;;;;;;21.77;29.48;101383.75;4200387;28;20476;-47
2022/03/03 01:00:07;;;;;;;10.57;2.50;;;;;;;21.78;29.63;101374.28;4199644;28;20082;-44
2022/03/03 01:02:09;;;;;;;10.13;3.20;;;;;;;21.78;29.39;101379.84;4199644;28;20059;-46
2022/03/03 01:04:10;;;;;;;11.48;2.67;;;;;;;21.80;29.50;101373.97;4199569;28;20049;-48
2022/03/03 01:06:15;;;;;;;9.57;2.97;;;;;;;21.80;29.48;101371.19;4198076;28;20098;-44
2022/03/03 01:08:16;;;;;;;;;;;;;;;21.80;29.39;101374.81;4200449;28;20025;-46
2022/03/03 01:10:18;;;;;;;11.75;2.97;;;;;;;21.87;29.65;101370.94;4197806;28;19974;-49
2022/03/03 01:12:23;;;;;;;9.00;2.85;;;;;;;21.89;29.44;101369.53;4198211;28;20036;-45
2022/03/03 01:14:25;;;;;;;;;;;;;;;21.89;29.39;101363.13;4200067;28;20435;-46
2022/03/03 01:16:30;;;;;;;13.82;3.72;;;;;;;21.95;29.32;101367.63;4199777;28;19913;-45
2022/03/03 01:18:32;;;;;;;10.45;2.42;;;;;;;21.94;29.30;101379.84;4199865;28;20105;-43
2022/03/03 01:20:34;;;;;;;8.63;2.97;;;;;;;21.92;29.39;101382.09;4199352;28;20086;-44
2022/03/03 01:22:36;;;;;;;12.18;2.78;;;;;;;21.92;29.47;101379.31;4199505;28;20468;-45
2022/03/03 01:24:38;;;;;;;12.13;2.50;;;;;;;21.87;29.29;101365.38;4199633;28;20036;-46
2022/03/03 01:26:42;;;;;;;9.75;2.88;;;;;;;21.89;29.53;101369.53;4197992;28;20033;-44
2022/03/03 01:28:45;;;;;;;8.38;2.55;;;;;;;21.90;29.47;101359.22;4198255;28;20036;-43
2022/03/03 01:30:48;;;;;;;9.45;2.38;;;;;;;21.90;29.61;101359.22;4199221;28;20052;-47
2022/03/03 01:32:52;;;;;;;11.15;3.00;;;;;;;21.89;29.66;101357.56;4199530;28;20491;-45
2022/03/03 01:34:53;;;;;;;10.77;2.50;;;;;;;21.87;29.35;101349.47;4199108;28;20102;-44
2022/03/03 01:36:55;;;;;;;9.32;2.60;;;;;;;21.89;29.11;101351.97;4199074;28;20036;-45
2022/03/03 01:38:56;;;;;;;6.97;2.70;;;;;;;21.88;29.34;101344.75;4199567;28;20106;-43
2022/03/03 01:40:58;;;;;;;10.27;2.50;;;;;;;21.90;29.39;101348.94;4198930;28;20040;-45
2022/03/03 01:43:00;;;;;;;10.32;2.65;;;;;;;21.87;29.23;101343.06;4199124;28;20758;-45
2022/03/03 01:45:03;;;;;;;8.90;3.00;;;;;;;21.89;29.11;101346.41;4198964;28;20048;-47
2022/03/03 01:47:16;;;;;;;7.35;2.67;;;;;;;21.89;29.53;101346.41;4197768;28;20036;-45
2022/03/03 01:49:18;;;;;;;10.45;2.45;;;;;;;21.89;29.28;101340.84;4198934;28;20106;-46
2022/03/03 01:51:20;;;;;;;11.77;2.60;;;;;;;21.89;29.20;101343.63;4198441;28;20106;-44
2022/03/03 01:53:21;;;;;;;10.65;3.33;;;;;;;21.89;29.17;101341.66;4198270;28;20123;-46
2022/03/03 01:55:24;;;;;;;10.05;3.30;;;;;;;21.88;29.50;101339.16;4198094;28;20078;-46
2022/03/03 01:57:25;;;;;;;10.02;2.65;;;;;;;21.88;29.70;101328.03;4204087;28;20020;-49
2022/03/03 01:59:27;;;;;;;12.48;2.53;;;;;;;21.86;29.48;101330.28;4215501;28;20464;-47
2022/03/03 02:01:31;;;;;;;7.15;2.38;;;;;;;21.86;29.10;101335.84;4215441;28;20036;-47
2022/03/03 02:03:33;;;;;;;11.70;2.65;;;;;;;21.85;29.44;101340.56;4215650;28;20089;-45
2022/03/03 02:05:34;;;;;;;14.40;3.00;;;;;;;21.85;29.63;101342.50;4215423;28;20089;-44
2022/03/03 02:07:36;;;;;;;6.90;2.67;;;;;;;21.85;29.52;101337.75;4215313;28;20475;-44
2022/03/03 02:09:39;;;;;;;7.18;3.00;;;;;;;21.83;29.39;101338.06;4215241;28;20040;-45
2022/03/03 02:11:41;;;;;;;8.43;2.58;;;;;;;21.85;29.50;101345.28;4215363;28;20056;-44
2022/03/03 02:13:42;;;;;;;9.35;3.05;;;;;;;21.83;29.53;101338.06;4215198;28;20528;-46
2022/03/03 02:15:51;;;;;;;11.32;2.97;;;;;;;21.79;29.53;101331.34;4215120;28;20089;-46
2022/03/03 02:17:52;;;;;;;4.63;2.70;;;;;;;21.80;29.79;101327.44;4215293;28;20390;-47
2022/03/03 02:19:54;;;;;;;6.15;2.45;;;;;;;21.82;29.61;101325.25;4212350;28;20093;-46
2022/03/03 02:21:55;;;;;;;6.30;2.05;;;;;;;21.81;29.24;101320.78;4198059;28;20484;-43
2022/03/03 02:23:57;;;;;;;10.65;2.92;;;;;;;21.82;29.84;101329.97;4197948;28;20040;-47
2022/03/03 02:26:00;;;;;;;12.88;3.08;;;;;;;21.83;29.53;101324.13;4198538;28;20097;-44
2022/03/03 02:28:02;;;;;;;8.45;2.83;;;;;;;21.82;29.66;101299.34;4198258;28;20102;-45
2022/03/03 02:30:06;;;;;;;10.50;3.03;;;;;;;21.83;29.42;101293.47;4197572;28;20036;-44
2022/03/03 02:32:08;;;;;;;11.57;3.65;;;;;;;21.77;29.47;101283.47;4198349;28;20040;-43
2022/03/03 02:34:10;;;;;;;5.95;2.60;;;;;;;21.82;29.51;101291.81;4207873;28;20032;-45
2022/03/03 02:36:30;;;;;;;8.43;2.63;;;;;;;21.81;29.57;101289.31;4215177;28;20058;-43
2022/03/03 02:38:32;;;;;;;8.68;2.60;;;;;;;21.85;29.83;101290.41;4212733;28;20061;-44
2022/03/03 02:40:33;;;;;;;9.48;2.50;;;;;;;21.83;29.93;101293.47;4197328;28;20089;-47
2022/03/03 02:42:35;;;;;;;6.43;2.10;;;;;;;21.84;29.37;101305.44;4197752;28;20032;-46
2022/03/03 02:44:36;;;;;;;7.00;2.63;;;;;;;21.83;29.56;101315.75;4197618;28;20036;-47
2022/03/03 02:46:38;;;;;;;10.40;2.90;;;;;;;21.83;29.58;101314.94;4197985;28;20454;-43
2022/03/03 02:48:42;;;;;;;7.82;2.60;;;;;;;21.82;29.54;101313.25;4197977;28;20040;-48
2022/03/03 02:50:44;;;;;;;7.60;2.70;;;;;;;21.83;29.65;101310.19;4197247;28;20086;-45
2022/03/03 02:52:45;;;;;;;8.63;2.50;;;;;;;21.83;29.50;101310.19;4197737;28;20049;-46
2022/03/03 02:54:46;;;;;;;5.88;2.63;;;;;;;21.82;29.63;101302.97;4197709;28;20574;-44
2022/03/03 02:59:10;;;;;;;7.25;2.40;;;;;;;21.83;29.65;101296.25;4197808;28;20063;-43
2022/03/03 03:01:14;;;;;;;6.82;2.47;;;;;;;21.82;29.78;101290.97;4196873;28;20032;-44
2022/03/03 03:03:18;;;;;;;4.93;2.47;;;;;;;21.82;29.79;101277.88;4196020;28;20109;-45
2022/03/03 03:05:28;;;;;;;5.70;2.40;;;;;;;21.80;29.69;101255.03;4197792;28;20289;-43
2022/03/03 03:07:30;;;;;;;7.35;2.22;;;;;;;21.82;29.75;101241.66;4197856;28;20040;-45
2022/03/03 03:09:36;;;;;;;7.50;2.50;;;;;;;21.83;29.65;101234.16;4198052;28;20044;-48
2022/03/03 03:11:41;;;;;;;7.85;2.72;;;;;;;21.82;29.45;101222.16;4197233;28;20427;-46
2022/03/03 03:13:45;;;;;;;10.38;2.80;;;;;;;21.82;29.90;101224.13;4180067;28;20619;-43
2022/03/03 03:15:46;;;;;;;6.07;2.17;;;;;;;21.81;29.80;101228.03;4197334;28;20032;-45
2022/03/03 03:17:48;;;;;;;5.60;2.40;;;;;;;21.82;29.91;101224.94;4197197;28;20274;-45
2022/03/03 03:19:49;;;;;;;9.25;2.25;;;;;;;21.82;29.74;101218.56;4197348;28;20345;-43
2022/03/03 03:22:00;;;;;;;7.35;2.53;;;;;;;21.79;29.65;101219.94;4204967;28;20122;-47
2022/03/03 03:24:01;;;;;;;4.72;2.38;;;;;;;21.81;29.65;101205.75;4213466;28;20453;-46
2022/03/03 03:26:06;;;;;;;6.15;2.30;;;;;;;21.80;29.77;101192.91;4212588;28;20048;-43
2022/03/03 03:28:07;;;;;;;10.45;2.83;;;;;;;21.79;29.51;101180.94;4200376;28;20074;-48
2022/03/03 03:30:14;;;;;;;5.07;2.30;;;;;;;21.80;29.68;101182.59;4199854;28;20023;-42
2022/03/03 03:32:18;;;;;;;5.75;2.42;;;;;;;21.80;29.87;101181.75;4213500;28;20040;-48
2022/03/03 03:34:19;;;;;;;8.27;2.80;;;;;;;21.80;29.39;101190.94;4213620;28;20048;-47
2022/03/03 03:36:20;;;;;;;7.60;2.50;;;;;;;21.75;29.52;101188.19;4213489;28;20036;-44
2022/03/03 03:38:22;;;;;;;5.35;2.38;;;;;;;21.79;29.43;101197.66;4210849;28;20036;-46
2022/03/03 03:40:24;;;;;;;5.43;2.10;;;;;;;21.77;29.41;101182.34;4211565;28;20048;-45
2022/03/03 03:42:25;;;;;;;6.90;2.53;;;;;;;21.76;29.62;101189.00;4213085;28;20121;-45
2022/03/03 03:44:27;;;;;;;8.05;2.85;;;;;;;21.78;29.77;101184.84;4212988;28;20086;-44
2022/03/03 03:46:28;;;;;;;6.20;2.50;;;;;;;21.76;29.88;101191.78;4199744;28;20410;-45
2022/03/03 03:48:30;;;;;;;4.00;2.25;;;;;;;21.78;29.83;101184.00;4200768;28;20032;-45
2022/03/03 03:50:32;;;;;;;4.57;2.30;;;;;;;21.75;29.74;101192.91;4213954;28;20044;-44
2022/03/03 03:52:34;;;;;;;8.27;2.20;;;;;;;21.78;29.24;101195.97;4213264;28;20491;-46
2022/03/03 03:54:35;;;;;;;6.65;2.45;;;;;;;21.78;29.45;101201.56;4214238;28;20533;-43
2022/03/03 03:56:37;;;;;;;7.22;2.53;;;;;;;21.74;29.46;101194.88;4213928;28;20040;-46
2022/03/03 03:58:38;;;;;;;7.32;2.40;;;;;;;21.76;29.97;101180.66;4213895;28;20044;-45
2022/03/03 04:00:39;;;;;;;7.43;2.92;;;;;;;21.76;29.47;101170.38;4213799;28;20036;-48
2022/03/03 04:02:42;;;;;;;5.78;2.83;;;;;;;21.77;29.34;101155.31;4214246;28;20093;-46
2022/03/03 04:04:44;;;;;;;9.60;2.75;;;;;;;21.75;29.74;101151.13;4212948;28;20037;-43
2022/03/03 04:06:45;;;;;;;6.68;2.58;;;;;;;21.73;29.70;101143.06;4212394;28;20040;-45
2022/03/03 04:08:47;;;;;;;5.82;2.38;;;;;;;21.74;29.79;101136.38;4213849;28;20525;-43
2022/03/03 04:10:48;;;;;;;5.63;2.53;;;;;;;21.73;29.86;101131.94;4213422;28;20081;-44
2022/03/03 04:12:50;;;;;;;5.63;2.28;;;;;;;21.67;29.85;101116.34;4213021;28;20036;-49
2022/03/03 04:14:52;;;;;;;5.07;2.42;;;;;;;21.69;29.93;101107.72;4215487;28;20085;-44
2022/03/03 04:16:53;;;;;;;7.63;2.42;;;;;;;21.74;29.73;101116.06;4216878;28;20036;-44
2022/03/03 04:18:55;;;;;;;7.40;2.33;;;;;;;21.71;29.56;101103.50;4216470;28;20024;-44
2022/03/03 04:20:56;;;;;;;8.10;2.70;;;;;;;21.71;29.65;101100.72;4217228;28;20040;-46
2022/03/03 04:22:58;;;;;;;5.53;2.83;;;;;;;21.72;29.75;101108.00;4215654;28;20416;-45
2022/03/03 04:24:59;;;;;;;6.32;2.00;;;;;;;21.73;29.82;101100.47;4216569;28;20431;-46
2022/03/03 04:27:01;;;;;;;4.95;2.13;;;;;;;21.72;29.96;101091.28;4216881;28;20024;-45
2022/03/03 04:29:03;;;;;;;5.53;2.38;;;;;;;21.69;29.71;101069.56;4217492;28;20094;-43
2022/03/03 04:31:05;;;;;;;5.95;2.38;;;;;;;21.70;29.65;101076.78;4216758;28;20077;-43
2022/03/03 04:33:07;;;;;;;7.05;2.40;;;;;;;21.70;29.69;101065.63;4216994;28;20090;-45
2022/03/03 04:35:09;;;;;;;8.15;2.45;;;;;;;21.67;29.58;101065.38;4216639;28;20040;-45
2022/03/03 04:37:12;;;;;;;7.10;2.58;;;;;;;21.69;29.54;101077.91;4216897;28;20040;-46
2022/03/03 04:39:19;;;;;;;7.13;2.33;;;;;;;21.64;29.80;101072.34;4216969;28;20086;-47
2022/03/03 04:41:21;;;;;;;9.45;2.60;;;;;;;21.70;29.41;101073.16;4216257;28;20097;-44
2022/03/03 04:43:22;;;;;;;4.00;2.33;;;;;;;21.69;29.56;101080.69;4216844;28;20093;-45
2022/03/03 04:45:24;;;;;;;6.95;2.35;;;;;;;21.67;29.76;101077.38;4216872;28;20143;-45
2022/03/03 04:47:25;;;;;;;3.88;2.20;;;;;;;21.69;29.86;101071.50;4216969;28;20036;-46
2022/03/03 04:49:27;;;;;;;7.20;2.17;;;;;;;21.66;29.80;101067.31;4216905;28;20040;-48
2022/03/03 04:51:36;;;;;;;5.00;2.40;;;;;;;21.67;29.96;101060.66;4216462;28;20097;-49
2022/03/03 04:53:38;;;;;;;6.68;2.40;;;;;;;21.65;29.59;101057.31;4216347;28;20039;-44
2022/03/03 04:55:40;;;;;;;4.22;2.03;;;;;;;21.67;29.85;101046.72;4216520;28;20031;-45
2022/03/03 04:57:42;;;;;;;4.40;2.00;;;;;;;21.66;29.79;101056.19;4216651;28;20093;-43
2022/03/03 04:59:43;;;;;;;3.47;2.15;;;;;;;21.64;29.95;101061.22;4216575;28;20044;-46
2022/03/03 05:01:45;;;;;;;6.65;2.25;;;;;;;21.64;29.75;101066.78;4198448;28;20040;-46
2022/03/03 05:03:46;;;;;;;5.15;2.65;;;;;;;21.65;29.44;101082.38;4216516;28;20043;-44
2022/03/03 05:05:51;;;;;;;5.65;2.28;;;;;;;21.63;29.54;101076.25;4216611;28;20035;-43
2022/03/03 05:07:52;;;;;;;5.90;2.37;;;;;;;21.63;29.74;101076.25;4216340;28;20105;-44
2022/03/03 05:09:54;;;;;;;4.05;2.13;;;;;;;21.63;29.42;101073.47;4216454;28;20048;-45
2022/03/03 05:11:57;;;;;;;4.60;2.20;;;;;;;21.63;29.65;101081.81;4216180;28;20049;-44
2022/03/03 05:13:58;;;;;;;4.75;2.35;;;;;;;21.64;29.77;101072.34;4216776;28;20102;-45
2022/03/03 05:16:00;;;;;;;3.85;2.30;;;;;;;21.62;29.54;101073.72;4216118;28;20085;-44
2022/03/03 05:18:01;;;;;;;4.10;1.73;;;;;;;21.61;29.88;101067.34;4215528;28;20071;-43
2022/03/03 05:20:03;;;;;;;4.40;2.70;;;;;;;21.61;29.61;101070.13;4216029;28;20027;-45
2022/03/03 05:22:05;;;;;;;3.83;1.98;;;;;;;21.55;29.71;101052.59;4215524;28;20101;-44
2022/03/03 05:24:07;;;;;;;6.38;2.15;;;;;;;21.53;29.46;101043.72;4199342;28;20024;-49
2022/03/03 05:26:08;;;;;;;5.90;2.67;;;;;;;21.58;29.67;101051.22;4199446;28;20094;-43
2022/03/03 05:28:09;;;;;;;6.20;2.00;;;;;;;21.58;29.69;101051.22;4215897;28;20105;-45
2022/03/03 05:30:14;;;;;;;4.25;2.20;;;;;;;21.56;29.86;101053.44;4215774;28;20521;-45
2022/03/03 05:32:15;;;;;;;3.40;2.00;;;;;;;21.52;29.56;101046.75;4215124;28;20544;-47
2022/03/03 05:34:17;;;;;;;6.30;1.77;;;;;;;21.52;29.48;101043.97;4215763;28;20044;-47
2022/03/03 05:36:23;;;;;;;3.92;1.83;;;;;;;21.56;29.82;101051.47;4215765;28;20442;-45
2022/03/03 05:38:29;;;;;;;3.97;1.95;;;;;;;21.56;29.67;101043.13;4215636;28;20032;-48
2022/03/03 05:40:31;;;;;;;3.55;2.22;;;;;;;21.54;29.59;101039.81;4215534;28;20098;-44
2022/03/03 05:42:33;;;;;;;3.25;1.70;;;;;;;21.51;29.74;101033.97;4216092;28;20487;-46
2022/03/03 05:44:34;;;;;;;4.90;1.98;;;;;;;21.55;29.48;101035.91;4214997;28;20120;-45
2022/03/03 05:46:36;;;;;;;5.38;2.42;;;;;;;21.54;29.49;101023.09;4213772;28;20047;-47
2022/03/03 05:48:43;;;;;;;2.17;1.35;;;;;;;21.55;29.63;101018.34;4214947;28;20508;-48
2022/03/03 05:50:46;;;;;;;3.00;1.90;;;;;;;21.55;29.68;101035.91;4215750;28;20040;-47
2022/03/03 05:52:47;;;;;;;3.33;2.42;;;;;;;21.54;29.83;101016.69;4198455;28;20036;-44
2022/03/03 05:54:49;;;;;;;4.15;2.08;;;;;;;21.53;29.81;101004.72;4198962;28;20036;-43
2022/03/03 05:56:54;;;;;;;4.00;2.08;;;;;;;21.54;29.94;101005.56;4198841;28;20036;-45
2022/03/03 05:58:59;;;;;;;2.67;1.83;;;;;;;21.52;29.96;101002.22;4203965;28;20097;-45
2022/03/03 06:01:01;;;;;;;;;;;;;;;21.53;29.50;101003.88;4215707;28;20089;-44
2022/03/03 06:03:03;;;;;;;3.58;2.28;;;;;;;21.59;29.62;100999.97;4215510;28;19912;-46
2022/03/03 06:05:06;;;;;;;4.38;1.77;;;;;;;21.58;29.74;100981.59;4215136;28;20093;-44
2022/03/03 06:07:10;;;;;;;3.42;1.90;;;;;;;21.54;29.65;100974.94;4215326;28;20036;-44
2022/03/03 06:09:15;;;;;;;4.68;2.10;;;;;;;21.53;29.54;100987.16;4215517;28;20032;-46
2022/03/03 06:11:20;;;;;;;4.18;2.03;;;;;;;21.51;29.51;100964.34;4213868;28;20040;-43
2022/03/03 06:13:30;;;;;;;2.97;2.00;;;;;;;21.52;29.51;100979.94;4214144;28;20422;-45
2022/03/03 06:15:33;;;;;;;3.25;2.03;;;;;;;21.52;29.81;100991.06;4214204;28;20112;-44
2022/03/03 06:17:36;;;;;;;4.20;1.90;;;;;;;21.50;30.00;100971.03;4214147;28;20048;-44
2022/03/03 06:19:42;;;;;;;5.05;1.77;;;;;;;21.51;29.73;100950.44;4213765;28;20040;-45
2022/03/03 06:21:44;;;;;;;4.93;1.92;;;;;;;21.49;29.68;100964.66;4214570;28;20101;-45
2022/03/03 06:23:46;;;;;;;3.03;2.17;;;;;;;21.48;29.76;100959.34;4214996;28;20036;-44
2022/03/03 06:25:56;;;;;;;4.40;1.98;;;;;;;21.48;29.93;100965.75;4214830;28;20410;-44
2022/03/03 06:27:58;;;;;;;2.58;2.10;;;;;;;21.49;29.87;100949.91;4214963;28;20036;-45
2022/03/03 06:29:59;;;;;;;5.07;1.98;;;;;;;21.47;30.10;100954.91;4215004;28;20019;-47
2022/03/03 06:32:02;;;;;;;3.45;1.65;;;;;;;21.47;30.02;100958.50;4214527;28;20173;-44
2022/03/03 06:34:03;;;;;;;2.20;1.70;;;;;;;21.44;29.70;100955.44;4214788;28;20089;-43
2022/03/03 06:36:05;;;;;;;2.67;1.85;;;;;;;21.46;29.55;100958.81;4214360;28;20498;-45
2022/03/03 06:38:07;;;;;;;2.10;1.60;;;;;;;21.46;29.60;100942.09;4214633;28;20036;-44
2022/03/03 06:40:12;;;;;;;3.17;1.92;;;;;;;21.45;29.89;100946.84;4214884;28;20412;-44
2022/03/03 06:42:13;;;;;;;4.50;2.03;;;;;;;21.43;29.62;100939.88;4214285;28;20101;-46
2022/03/03 06:44:15;;;;;;;3.58;1.85;;;;;;;21.44;29.62;100933.19;4214912;28;20783;-44
2022/03/03 06:46:18;;;;;;;3.28;1.92;;;;;;;21.43;30.04;100946.28;4212981;28;20077;-44
2022/03/03 06:48:19;;;;;;;3.80;1.92;;;;;;;21.42;29.78;100913.16;4214438;28;20044;-43
2022/03/03 06:50:21;;;;;;;2.28;1.90;;;;;;;21.42;29.60;100915.94;4214612;28;20446;-43
2022/03/03 06:52:26;;;;;;;3.42;2.10;;;;;;;21.42;29.88;100930.69;4214416;28;20036;-45
2022/03/03 06:54:31;;;;;;;3.80;1.95;;;;;;;21.42;30.04;100921.50;4214985;28;20043;-44
2022/03/03 06:56:34;;;;;;;;;;;;;;;21.41;29.96;100898.41;4214764;28;20040;-44
2022/03/03 06:58:37;;;;;;;2.75;1.90;;;;;;;21.46;29.63;100875.28;4214735;28;19912;-45
2022/03/03 07:00:40;;;;;;;4.22;1.88;;;;;;;21.46;30.06;100890.03;4214134;28;20056;-46
2022/03/03 07:02:43;;;;;;;3.15;2.00;;;;;;;21.44;29.77;100886.72;4214717;28;20035;-43
2022/03/03 07:04:48;;;;;;;3.13;2.15;;;;;;;21.42;29.94;100890.91;4213937;28;20032;-46
2022/03/03 07:06:50;;;;;;;2.50;1.52;;;;;;;21.42;29.68;100885.31;4214447;28;20409;-43
2022/03/03 07:08:57;;;;;;;2.45;1.73;;;;;;;21.40;29.53;100898.72;4214822;28;20101;-45
2022/03/03 07:10:59;;;;;;;2.28;1.88;;;;;;;21.41;29.76;100890.06;4197489;28;20040;-43
2022/03/03 07:13:01;;;;;;;1.75;1.58;;;;;;;21.39;29.75;100895.06;4197831;28;20505;-46
2022/03/03 07:15:03;;;;;;;3.65;2.25;;;;;;;21.38;29.78;100889.78;4198431;28;20036;-44
2022/03/03 07:17:17;;;;;;;2.13;1.83;;;;;;;21.35;30.00;100882.00;4197795;28;20086;-47
2022/03/03 07:19:37;;;;;;;2.65;1.92;;;;;;;21.35;29.82;100890.34;4197433;28;20036;-44
2022/03/03 07:22:43;;;;;;;2.78;1.67;;;;;;;21.33;30.18;100882.28;4210634;28;20112;-44
2022/03/03 07:24:47;;;;;;;1.80;1.67;;;;;;;21.39;29.84;100869.19;4143725;28;20052;-46
2022/03/03 07:26:53;;;;;;;2.97;1.98;;;;;;;21.37;29.95;100860.28;4207059;28;20036;-44
2022/03/03 07:28:59;;;;;;;2.63;2.10;;;;;;;21.37;29.70;100840.81;4214496;28;20040;-44
2022/03/03 07:31:03;;;;;;;3.17;1.90;;;;;;;21.37;30.16;100846.38;4213609;28;20449;-44
2022/03/03 07:33:10;;;;;;;2.72;1.60;;;;;;;21.35;30.15;100845.81;4213895;28;20563;-43
2022/03/03 07:35:14;;;;;;;2.63;2.00;;;;;;;21.34;29.71;100844.16;4214507;28;20082;-46
2022/03/03 07:37:23;;;;;;;3.88;1.85;;;;;;;21.33;30.11;100842.50;4214505;28;20036;-44
2022/03/03 07:39:31;;;;;;;2.25;1.90;;;;;;;21.33;29.72;100839.72;4212737;28;20098;-48
2022/03/03 07:41:33;;;;;;;2.80;1.80;;;;;;;21.33;29.81;100836.94;4212686;28;20048;-47
2022/03/03 07:43:34;;;;;;;2.67;1.67;;;;;;;21.25;30.05;100819.66;4213728;28;20089;-44
2022/03/03 07:45:36;;;;;;;3.30;1.83;;;;;;;21.30;30.03;100828.03;4213372;28;20441;-47
2022/03/03 07:47:39;;;;;;;2.33;1.70;;;;;;;21.30;30.02;100833.59;4212396;28;20067;-45
2022/03/03 07:49:40;;;;;;;3.42;1.50;;;;;;;21.30;29.76;100841.94;4217191;28;20098;-44
2022/03/03 07:51:45;;;;;;;1.85;1.52;;;;;;;21.30;30.08;100853.06;4216797;28;20028;-46
2022/03/03 07:53:48;;;;;;;1.83;1.60;;;;;;;21.28;30.12;100860.84;4217250;28;20475;-46
2022/03/03 07:55:55;;;;;;;3.38;1.77;;;;;;;21.28;30.15;100873.94;4217259;28;20073;-48
2022/03/03 07:58:00;;;;;;;1.83;1.40;;;;;;;21.26;30.10;100874.25;4216891;28;20109;-44
2022/03/03 08:00:06;;;;;;;1.67;1.58;;;;;;;21.26;29.92;100879.81;4217458;28;20048;-45
2022/03/03 08:02:07;;;;;;;2.50;1.90;;;;;;;21.24;29.88;100865.31;4216281;28;20115;-44
2022/03/03 08:04:14;;;;;;;3.03;1.67;;;;;;;21.26;30.08;100870.63;4216120;28;20426;-45
2022/03/03 08:06:16;;;;;;;2.67;1.70;;;;;;;21.24;30.01;100873.66;4216883;28;20078;-47
2022/03/03 08:08:21;;;;;;;2.30;1.30;;;;;;;21.23;29.96;100871.19;4216706;28;20131;-45
2022/03/03 08:10:25;;;;;;;;;;;;;;;21.21;30.29;100868.69;4202372;28;20380;-46
2022/03/03 08:12:30;;;;;;;2.20;1.80;;;;;;;21.24;30.27;100868.09;4216914;28;19920;-44
2022/03/03 08:14:33;;;;;;;2.10;1.35;;;;;;;21.26;30.25;100865.88;4217048;28;20048;-43
2022/03/03 08:16:36;;;;;;;2.60;1.80;;;;;;;21.26;29.95;100867.84;4217347;28;20036;-45
2022/03/03 08:18:37;;;;;;;1.90;1.40;;;;;;;21.24;30.34;100851.41;4216837;28;20540;-45
2022/03/03 08:20:39;;;;;;;1.92;1.45;;;;;;;21.23;29.87;100855.31;4216812;28;20036;-44
2022/03/03 08:22:40;;;;;;;2.63;1.77;;;;;;;21.21;30.10;100857.56;4217143;28;20032;-44
2022/03/03 08:24:43;;;;;;;2.53;2.00;;;;;;;21.19;30.06;100854.22;4216368;28;20089;-45
2022/03/03 08:26:45;;;;;;;2.83;1.70;;;;;;;21.15;29.96;100858.69;4216866;28;20047;-43
2022/03/03 08:28:47;;;;;;;2.83;1.80;;;;;;;21.11;30.27;100865.09;4217256;28;20040;-46
2022/03/03 08:30:51;;;;;;;2.28;1.30;;;;;;;21.15;30.18;100875.38;4216642;28;20524;-45
2022/03/03 08:33:17;;;;;;;1.98;1.70;;;;;;;21.10;30.28;100875.41;4216606;28;20062;-46
2022/03/03 08:35:29;;;;;;;2.92;1.88;;;;;;;21.08;30.22;100876.81;4216368;28;20040;-44
2022/03/03 08:37:40;;;;;;;3.05;1.67;;;;;;;21.13;30.56;100929.66;4216872;28;20039;-44
2022/03/03 08:39:44;;;;;;;2.20;1.60;;;;;;;21.16;30.02;100949.38;4216348;28;20085;-44
2022/03/03 08:41:46;;;;;;;3.23;1.70;;;;;;;21.17;30.58;100941.91;4215927;28;20093;-47
2022/03/03 08:43:51;;;;;;;2.15;1.40;;;;;;;21.16;30.62;100943.81;4216051;28;20078;-43
2022/03/03 08:45:53;;;;;;;;;;;;;;;21.14;30.35;100951.63;4216125;28;20040;-43
2022/03/03 08:48:10;;;;;;;1.80;1.30;;;;;;;21.16;30.26;100946.59;4216335;28;19969;-43
2022/03/03 08:50:15;;;;;;;2.03;1.60;;;;;;;21.20;29.96;100960.78;4216476;28;20040;-44
2022/03/03 08:52:16;;;;;;;3.40;1.67;;;;;;;21.17;30.18;100939.13;4216021;28;20043;-43
2022/03/03 08:54:18;;;;;;;1.92;1.55;;;;;;;21.16;30.09;100948.56;4216738;28;20039;-45
2022/03/03 08:56:25;;;;;;;1.40;1.10;;;;;;;21.12;30.17;100926.06;4216317;28;20494;-43
2022/03/03 08:58:26;;;;;;;2.30;1.83;;;;;;;21.13;30.25;100930.50;4215992;28;20101;-43
2022/03/03 09:00:28;;;;;;;2.50;2.13;;;;;;;21.10;30.29;100949.69;4215785;28;20101;-43
2022/03/03 09:02:29;;;;;;;1.73;1.50;;;;;;;21.12;30.48;100948.31;4216616;28;20040;-44
2022/03/03 09:04:31;;;;;;;2.38;1.38;;;;;;;21.13;30.64;100955.53;4216777;28;20040;-43
2022/03/03 09:06:32;;;;;;;2.80;1.40;;;;;;;21.13;30.55;100954.72;4214443;28;20044;-44
2022/03/03 09:08:34;;;;;;;2.17;1.55;;;;;;;21.11;30.33;100937.44;4216293;28;20081;-45
2022/03/03 09:10:35;;;;;;;2.35;1.50;;;;;;;21.10;30.50;100950.53;4216177;28;20475;-43
2022/03/03 09:12:40;;;;;;;1.73;1.55;;;;;;;21.06;30.55;100954.97;4215552;28;20031;-44
2022/03/03 09:14:41;;;;;;;1.27;1.15;;;;;;;21.10;30.32;100961.66;4216036;28;20479;-44
2022/03/03 09:16:43;;;;;;;1.65;1.42;;;;;;;21.11;30.40;100962.47;4216058;28;20456;-45
2022/03/03 09:18:45;;;;;;;1.98;1.55;;;;;;;21.10;30.35;100983.91;4215572;28;20029;-45
2022/03/03 09:20:47;;;;;;;2.13;1.67;;;;;;;21.10;30.29;100983.91;4216145;28;20040;-43
2022/03/03 09:22:48;;;;;;;2.03;1.60;;;;;;;21.09;30.63;100979.47;4215111;28;20036;-43
2022/03/03 09:24:52;;;;;;;1.48;1.38;;;;;;;21.09;30.74;100984.22;4214981;28;20044;-46
2022/03/03 09:26:54;;;;;;;3.83;1.50;;;;;;;21.08;30.58;100997.28;4216201;28;20043;-45
2022/03/03 09:28:56;;;;;;;2.55;1.50;;;;;;;21.08;30.35;101019.53;4216372;28;20043;-43
2022/03/03 09:30:57;;;;;;;2.25;1.17;;;;;;;21.08;30.65;101024.28;4215372;28;20098;-45
2022/03/03 09:32:59;;;;;;;1.60;1.50;;;;;;;21.05;30.24;101020.09;4214022;28;20032;-49
2022/03/03 09:35:00;;;;;;;2.88;1.52;;;;;;;21.07;30.39;101026.19;4216085;28;20048;-44